Time;durP1;ratioP1;P1;durP2;ratioP2;P2;SDS_P1;SDS_P2;PMS_P1;PMS_P2;Temp;Humidity;BMP_temperature;BMP_pressure;BME280_temperature;BME280_humidity;BME280_pressure;Samples;Min_cycle;Max_cycle;Signal;HPM_P1;HPM_P2
2022/01/12 00:00:39;;;;;;;4.00;3.23;;;;;;;-1.17;100.00;101396.22;5085978;28;20197;-73
2022/01/12 00:03:07;;;;;;;3.80;3.07;;;;;;;-1.02;100.00;101407.66;5088165;28;20201;-73
2022/01/12 00:05:34;;;;;;;2.43;2.23;;;;;;;-1.05;100.00;101403.22;5091521;28;20254;-73
2022/01/12 00:08:02;;;;;;;3.43;3.13;;;;;;;-0.98;100.00;101399.50;5090625;28;20190;-73
2022/01/12 00:10:29;;;;;;;5.10;3.27;;;;;;;-1.15;100.00;101412.50;5092066;28;20194;-73
2022/01/12 00:12:56;;;;;;;5.97;3.00;;;;;;;-1.09;100.00;101405.38;5091747;28;20205;-73
2022/01/12 00:15:23;;;;;;;4.43;3.07;;;;;;;-1.18;100.00;101419.91;5081812;28;20191;-73
2022/01/12 00:17:50;;;;;;;7.50;4.43;;;;;;;-1.14;100.00;101421.94;5079347;28;20668;-72
2022/01/12 00:20:16;;;;;;;4.57;3.50;;;;;;;-1.21;100.00;101424.69;5079020;28;20226;-73
2022/01/12 00:22:43;;;;;;;6.87;3.93;;;;;;;-1.22;100.00;101425.47;5091303;28;20186;-72
2022/01/12 00:25:26;;;;;;;3.90;3.50;;;;;;;-1.19;100.00;101424.09;5091815;28;20232;-73
2022/01/12 00:33:23;;;;;;;5.70;3.83;;;;;;;-1.07;100.00;101429.31;5093395;28;20205;-73
2022/01/12 00:35:52;;;;;;;3.33;2.97;;;;;;;-1.09;100.00;101420.63;5095962;28;20582;-73
2022/01/12 00:38:21;;;;;;;3.13;2.90;;;;;;;-1.23;100.00;101383.00;5094753;28;20198;-73
2022/01/12 00:40:53;;;;;;;4.40;3.57;;;;;;;-1.17;100.00;101426.75;5095631;28;20556;-73
2022/01/12 00:43:22;;;;;;;6.03;3.57;;;;;;;-1.22;100.00;101423.84;5095837;28;20560;-73
2022/01/12 00:45:49;;;;;;;6.53;4.60;;;;;;;-1.02;100.00;101428.00;5095481;28;20190;-73
2022/01/12 00:48:18;;;;;;;3.87;2.33;;;;;;;-1.07;100.00;101424.22;5095779;28;20197;-73
2022/01/12 00:50:46;;;;;;;3.53;3.23;;;;;;;-1.07;100.00;101420.00;5095330;28;20708;-73
2022/01/12 00:53:13;;;;;;;4.20;3.53;;;;;;;-1.15;100.00;101417.59;5095796;28;20581;-73
2022/01/12 00:55:40;;;;;;;4.00;2.77;;;;;;;-1.13;100.00;101422.03;5095642;28;20198;-73
2022/01/12 00:58:09;;;;;;;4.47;2.97;;;;;;;-1.18;100.00;101425.84;5095255;28;20669;-73
2022/01/12 01:00:37;;;;;;;2.90;2.13;;;;;;;-1.11;100.00;101424.72;5095509;28;20194;-73
2022/01/12 01:03:04;;;;;;;5.30;3.67;;;;;;;-1.25;100.00;101422.69;5095212;28;20624;-73
2022/01/12 01:05:33;;;;;;;2.43;2.23;;;;;;;-1.22;100.00;101423.84;5095210;28;20252;-73
2022/01/12 01:08:00;;;;;;;2.30;2.20;;;;;;;-1.19;100.00;101425.72;5094500;28;20186;-73
2022/01/12 01:10:37;;;;;;;4.33;3.10;;;;;;;-1.29;100.00;101405.41;5095369;28;20199;-73
2022/01/12 01:13:04;;;;;;;6.43;3.80;;;;;;;-1.40;100.00;101398.53;5095154;28;20194;-73
2022/01/12 01:15:54;;;;;;;4.20;2.50;;;;;;;-1.35;100.00;101421.03;5075056;28;20202;-73
2022/01/12 01:26:39;;;;;;;4.10;2.83;;;;;;;-1.24;100.00;101424.44;5074715;28;20189;-73
2022/01/12 01:29:06;;;;;;;2.50;2.30;;;;;;;-1.27;100.00;101419.13;5075545;28;20194;-73
2022/01/12 01:31:35;;;;;;;5.73;3.67;;;;;;;-1.48;100.00;101391.91;5075375;28;20592;-73
2022/01/12 01:34:09;;;;;;;3.17;2.67;;;;;;;-1.38;100.00;101404.59;5074273;28;20195;-73
2022/01/12 01:36:37;;;;;;;4.00;2.60;;;;;;;-1.42;100.00;101406.00;5075419;28;20289;-73
2022/01/12 01:39:05;;;;;;;4.83;3.33;;;;;;;-1.29;100.00;101420.66;5092199;28;20202;-73
2022/01/12 01:41:31;;;;;;;7.90;2.80;;;;;;;-1.32;100.00;101430.59;5094495;28;20205;-73
2022/01/12 01:55:00;;;;;;;3.00;2.70;;;;;;;-1.32;100.00;101433.13;5094826;28;20193;-73
2022/01/12 01:57:27;;;;;;;3.20;2.90;;;;;;;-1.37;100.00;101436.91;5095118;28;20228;-73
2022/01/12 01:59:54;;;;;;;4.70;4.23;;;;;;;-1.31;100.00;101432.34;5102233;28;20577;-73
2022/01/12 02:02:22;;;;;;;4.30;3.57;;;;;;;-1.34;100.00;101432.97;5114833;28;20196;-73
2022/01/12 02:04:49;;;;;;;5.50;2.87;;;;;;;-1.37;100.00;101435.28;5114378;28;20598;-73
2022/01/12 02:07:16;;;;;;;7.87;3.47;;;;;;;-1.27;100.00;101439.47;5113426;28;20642;-73
2022/01/12 02:09:42;;;;;;;8.87;4.20;;;;;;;-1.44;100.00;101434.63;5114654;28;20318;-73
2022/01/12 02:12:12;;;;;;;3.97;3.10;;;;;;;-1.28;100.00;101447.84;5104675;28;20187;-73
2022/01/12 02:14:39;;;;;;;5.63;3.20;;;;;;;-1.38;100.00;101445.31;5073542;28;20203;-72
2022/01/12 02:17:12;;;;;;;3.53;2.63;;;;;;;-1.59;100.00;101409.69;5091364;28;20187;-72
2022/01/12 02:19:53;;;;;;;5.67;2.50;;;;;;;-1.34;100.00;101442.25;5093543;28;20218;-73
2022/01/12 02:36:14;;;;;;;7.20;4.50;;;;;;;-1.30;100.00;101464.66;5076412;28;20589;-73
2022/01/12 02:41:27;;;;;;;4.40;3.33;;;;;;;-1.40;100.00;101454.47;5082914;28;20201;-73
2022/01/12 02:54:54;;;;;;;3.77;2.87;;;;;;;-1.55;100.00;101472.78;5072670;28;20268;-74
2022/01/12 02:57:22;;;;;;;20.83;3.27;;;;;;;-1.50;100.00;101474.03;5092025;28;20186;-73
2022/01/12 03:00:03;;;;;;;7.97;3.87;;;;;;;-1.53;100.00;101478.88;5086881;28;20191;-73
2022/01/12 03:02:33;;;;;;;2.70;2.50;;;;;;;-1.68;100.00;101477.59;5072729;28;20187;-73
2022/01/12 03:05:18;;;;;;;3.77;2.10;;;;;;;-1.62;100.00;101480.63;5079993;28;20313;-73
2022/01/12 03:07:45;;;;;;;7.23;3.70;;;;;;;-1.66;100.00;101475.16;5091616;28;20710;-72
2022/01/12 03:10:14;;;;;;;3.03;2.83;;;;;;;-1.79;100.00;101467.25;5092743;28;20194;-73
2022/01/12 03:12:42;;;;;;;6.53;2.87;;;;;;;-1.72;100.00;101483.16;5091253;28;20198;-73
2022/01/12 03:15:10;;;;;;;4.20;2.50;;;;;;;-1.76;100.00;101475.13;5091384;28;20202;-73
2022/01/12 03:17:37;;;;;;;2.30;2.20;;;;;;;-1.66;100.00;101487.88;5091154;28;20198;-73
2022/01/12 03:20:06;;;;;;;2.27;2.07;;;;;;;-1.71;100.00;101489.13;5092308;28;20268;-73
2022/01/12 03:22:33;;;;;;;1.60;1.50;;;;;;;-1.79;100.00;101483.41;5092491;28;20230;-73
2022/01/12 03:25:00;;;;;;;1.83;1.73;;;;;;;-1.88;100.00;101489.31;5084848;28;20222;-73
2022/01/12 03:27:29;;;;;;;3.50;3.13;;;;;;;-1.86;100.00;101495.44;5087258;28;20375;-73
2022/01/12 03:29:56;;;;;;;3.03;2.80;;;;;;;-1.83;100.00;101488.97;5092711;28;20291;-73
2022/01/12 03:32:32;;;;;;;3.10;2.80;;;;;;;-1.80;100.00;101483.25;5092552;28;20186;-73
2022/01/12 03:35:08;;;;;;;5.27;2.67;;;;;;;-1.82;100.00;101495.81;5092709;28;20189;-73
2022/01/12 03:37:52;;;;;;;3.23;2.37;;;;;;;-1.91;100.00;101500.13;5092336;28;20274;-74
2022/01/12 03:40:19;;;;;;;2.70;1.77;;;;;;;-1.85;100.00;101495.56;5092582;28;20276;-72
2022/01/12 03:42:47;;;;;;;3.40;3.03;;;;;;;-1.71;100.00;101494.22;5094379;28;20664;-73
2022/01/12 03:45:15;;;;;;;3.60;2.17;;;;;;;-1.73;100.00;101495.72;5092252;28;20226;-73
2022/01/12 03:47:42;;;;;;;3.60;2.50;;;;;;;-1.66;100.00;101498.03;5092464;28;20194;-72
2022/01/12 03:50:09;;;;;;;3.27;2.60;;;;;;;-1.66;100.00;101498.94;5092087;28;20186;-73
2022/01/12 03:52:36;;;;;;;3.60;3.03;;;;;;;-1.82;100.00;101500.03;5092091;28;20197;-73
2022/01/12 03:55:03;;;;;;;2.90;2.70;;;;;;;-1.81;100.00;101506.88;5092122;28;20194;-74
2022/01/12 03:57:30;;;;;;;3.93;2.77;;;;;;;-1.76;100.00;101509.06;5091955;28;20583;-72
2022/01/12 03:59:58;;;;;;;2.57;2.37;;;;;;;-1.76;100.00;101505.63;5092234;28;20197;-73
2022/01/12 04:02:25;;;;;;;1.67;1.60;;;;;;;-1.83;100.00;101513.50;5091874;28;20194;-73
2022/01/12 04:05:10;;;;;;;4.63;2.20;;;;;;;-1.78;100.00;101520.75;5091961;28;20286;-73
2022/01/12 04:10:21;;;;;;;3.47;2.90;;;;;;;-2.05;100.00;101495.50;5092122;28;20235;-73
2022/01/12 04:12:48;;;;;;;3.00;2.43;;;;;;;-1.84;100.00;101527.84;5092211;28;20577;-73
2022/01/12 04:15:16;;;;;;;4.87;3.80;;;;;;;-1.88;100.00;101520.72;5092131;28;20194;-73
2022/01/12 04:17:43;;;;;;;2.40;2.20;;;;;;;-1.93;100.00;101518.53;5091779;28;20186;-73
2022/01/12 04:20:10;;;;;;;3.33;1.93;;;;;;;-2.01;100.00;101522.94;5091493;28;20225;-73
2022/01/12 04:25:23;;;;;;;1.57;1.50;;;;;;;-1.92;100.00;101538.09;5091679;28;20236;-73
2022/01/12 04:27:50;;;;;;;2.00;1.83;;;;;;;-2.17;100.00;101508.00;5079008;28;20277;-73
2022/01/12 04:30:18;;;;;;;2.53;2.33;;;;;;;-2.02;100.00;101531.31;5080832;28;20205;-72
2022/01/12 04:32:45;;;;;;;3.70;1.87;;;;;;;-2.01;100.00;101539.09;5071377;28;20191;-73
2022/01/12 04:35:13;;;;;;;2.50;1.90;;;;;;;-2.00;100.00;101534.91;5071457;28;20210;-73
2022/01/12 04:37:41;;;;;;;3.17;2.80;;;;;;;-2.04;100.00;101538.84;5076808;28;20190;-75
2022/01/12 04:40:09;;;;;;;6.57;4.20;;;;;;;-1.98;100.00;101547.72;5091412;28;20198;-73
2022/01/12 04:42:36;;;;;;;4.87;4.20;;;;;;;-1.99;100.00;101551.91;5091358;28;20194;-74
2022/01/12 04:45:16;;;;;;;4.17;2.93;;;;;;;-2.08;100.00;101552.03;5091782;28;20252;-73
2022/01/12 04:48:00;;;;;;;5.10;2.50;;;;;;;-2.31;100.00;101517.69;5091399;28;20195;-73
2022/01/12 04:50:29;;;;;;;5.50;2.27;;;;;;;-2.11;100.00;101566.09;5091786;28;20278;-72
2022/01/12 04:52:56;;;;;;;3.50;2.30;;;;;;;-2.07;100.00;101560.53;5091714;28;20194;-72
2022/01/12 04:55:24;;;;;;;7.53;3.03;;;;;;;-2.00;100.00;101558.66;5091337;28;20665;-72
2022/01/12 04:57:51;;;;;;;9.03;2.93;;;;;;;-2.07;100.00;101573.25;5091544;28;20255;-73
2022/01/12 05:00:18;;;;;;;3.07;2.60;;;;;;;-2.09;100.00;101570.56;5091409;28;20199;-73
2022/01/12 05:08:23;;;;;;;3.77;2.53;;;;;;;-2.21;100.00;101563.50;5090936;28;20206;-73
2022/01/12 05:13:50;;;;;;;5.47;3.33;;;;;;;-2.02;100.00;101579.59;5048940;28;20596;-72
2022/01/12 05:16:18;;;;;;;6.83;3.83;;;;;;;-2.00;100.00;101586.59;5049098;28;20696;-72
2022/01/12 05:18:49;;;;;;;2.77;2.57;;;;;;;-2.10;100.00;101584.00;5067775;28;20679;-72
2022/01/12 05:21:17;;;;;;;5.10;2.63;;;;;;;-2.03;100.00;101591.41;5094026;28;20217;-72
2022/01/12 05:23:43;;;;;;;4.00;3.47;;;;;;;-1.93;100.00;101600.75;5094748;28;20696;-72
2022/01/12 05:26:11;;;;;;;2.93;2.60;;;;;;;-2.22;100.00;101546.47;5095030;28;20226;-72
2022/01/12 05:28:39;;;;;;;4.67;3.70;;;;;;;-1.90;100.00;101592.50;5095023;28;20190;-72
2022/01/12 05:31:07;;;;;;;3.50;2.63;;;;;;;-1.91;100.00;101611.03;5095074;28;20194;-72
2022/01/12 05:33:35;;;;;;;3.33;2.30;;;;;;;-2.09;100.00;101605.22;5096154;28;20201;-72
2022/01/12 05:36:05;;;;;;;8.53;4.77;;;;;;;-1.91;100.00;101611.03;5099055;28;20187;-72
2022/01/12 05:38:33;;;;;;;3.73;3.33;;;;;;;-2.02;100.00;101589.75;5100581;28;20196;-73
2022/01/12 05:41:01;;;;;;;4.47;3.13;;;;;;;-1.94;100.00;101611.69;5095672;28;20195;-72
2022/01/12 05:43:31;;;;;;;7.97;5.43;;;;;;;-1.92;100.00;101615.22;5082047;28;20189;-72
2022/01/12 05:46:01;;;;;;;4.33;2.87;;;;;;;-1.95;100.00;101620.03;5081658;28;20313;-73
2022/01/12 05:51:13;;;;;;;11.03;5.23;;;;;;;-2.06;100.00;101626.72;5076951;28;20217;-72
2022/01/12 05:53:40;;;;;;;3.57;2.80;;;;;;;-2.14;100.00;101627.66;5081495;28;20199;-73
2022/01/12 05:56:07;;;;;;;6.40;3.80;;;;;;;-2.10;100.00;101636.47;5074393;28;20268;-72
2022/01/12 05:58:33;;;;;;;2.93;2.33;;;;;;;-2.14;100.00;101631.88;5073943;28;20662;-72
2022/01/12 06:01:01;;;;;;;10.07;4.53;;;;;;;-2.03;100.00;101637.16;5074123;28;20594;-72
2022/01/12 06:03:28;;;;;;;3.40;2.30;;;;;;;-2.09;100.00;101643.34;5073756;28;20590;-72
2022/01/12 06:05:54;;;;;;;4.47;2.80;;;;;;;-2.06;100.00;101641.06;5079581;28;20237;-73
2022/01/12 06:08:22;;;;;;;9.67;6.77;;;;;;;-2.07;100.00;101650.31;5093759;28;20194;-73
2022/01/12 06:10:49;;;;;;;12.27;7.23;;;;;;;-2.05;100.00;101642.84;5076854;28;20210;-72
2022/01/12 06:13:16;;;;;;;3.90;2.70;;;;;;;-2.06;100.00;101641.97;5078000;28;20275;-73
2022/01/12 06:15:43;;;;;;;8.50;4.13;;;;;;;-2.00;100.00;101652.66;5093902;28;20202;-74
2022/01/12 06:18:10;;;;;;;11.37;6.70;;;;;;;-1.98;100.00;101657.91;5085430;28;20198;-73
2022/01/12 06:20:37;;;;;;;11.67;6.10;;;;;;;-1.91;100.00;101662.78;5073349;28;20732;-73
2022/01/12 06:23:03;;;;;;;14.57;6.27;;;;;;;-1.86;100.00;101631.03;5073676;28;20195;-74
2022/01/12 06:25:32;;;;;;;16.20;6.53;;;;;;;-1.78;100.00;101665.63;5073176;28;20233;-75
2022/01/12 06:28:20;;;;;;;16.50;7.90;;;;;;;-1.70;100.00;101669.75;5073157;28;20206;-73
2022/01/12 06:33:30;;;;;;;5.83;4.20;;;;;;;-1.57;100.00;101667.53;5090259;28;20294;-71
2022/01/12 06:35:56;;;;;;;24.03;9.07;;;;;;;-1.67;100.00;101662.41;5074753;28;20205;-71
2022/01/12 06:38:23;;;;;;;13.97;6.97;;;;;;;-1.81;100.00;101629.78;5070922;28;20195;-71
2022/01/12 06:40:52;;;;;;;18.80;7.23;;;;;;;-1.68;100.00;101673.34;5072723;28;20604;-74
2022/01/12 06:43:18;;;;;;;8.77;4.23;;;;;;;-1.85;100.00;101678.56;5073082;28;20199;-75
2022/01/12 06:45:45;;;;;;;12.63;5.93;;;;;;;-1.78;100.00;101683.44;5087087;28;20581;-74
2022/01/12 06:48:12;;;;;;;13.67;6.20;;;;;;;-1.78;100.00;101680.00;5092716;28;20205;-74
2022/01/12 06:50:39;;;;;;;8.93;6.47;;;;;;;-1.65;100.00;101682.88;5074485;28;20206;-74
2022/01/12 06:53:06;;;;;;;19.87;8.10;;;;;;;-1.70;100.00;101674.84;5082434;28;20576;-74
2022/01/12 06:55:33;;;;;;;15.60;7.63;;;;;;;-1.49;100.00;101691.09;5092598;28;20197;-74
2022/01/12 06:58:01;;;;;;;9.33;5.77;;;;;;;-1.67;100.00;101692.91;5093033;28;20681;-73
2022/01/12 07:00:28;;;;;;;19.13;9.00;;;;;;;-1.53;100.00;101692.47;5093023;28;20194;-74
2022/01/12 07:02:55;;;;;;;5.10;3.77;;;;;;;-1.79;100.00;101696.91;5092693;28;20194;-74
2022/01/12 07:05:21;;;;;;;11.83;5.33;;;;;;;-1.89;100.00;101698.50;5092741;28;20324;-75
2022/01/12 07:07:48;;;;;;;9.90;5.43;;;;;;;-1.68;100.00;101698.78;5091841;28;20190;-75
2022/01/12 07:10:15;;;;;;;14.43;6.43;;;;;;;-1.57;100.00;101698.03;5092803;28;20205;-74
2022/01/12 07:12:42;;;;;;;9.13;4.63;;;;;;;-1.68;100.00;101706.41;5083775;28;20589;-74
2022/01/12 07:15:10;;;;;;;5.73;3.53;;;;;;;-1.58;100.00;101703.91;5092241;28;20198;-74
2022/01/12 07:17:37;;;;;;;15.37;8.33;;;;;;;-1.56;100.00;101704.94;5092704;28;20597;-74
2022/01/12 07:20:05;;;;;;;9.63;6.30;;;;;;;-1.35;100.00;101713.56;5092710;28;20214;-75
2022/01/12 07:22:33;;;;;;;19.60;9.13;;;;;;;-1.71;100.00;101708.66;5091621;28;20194;-73
2022/01/12 07:24:59;;;;;;;25.90;9.40;;;;;;;-1.46;100.00;101710.84;5082936;28;20190;-76
2022/01/12 07:27:26;;;;;;;21.10;7.30;;;;;;;-1.59;100.00;101719.91;5088854;28;20633;-74
2022/01/12 07:29:53;;;;;;;11.37;5.40;;;;;;;-1.62;100.00;101729.81;5091571;28;20563;-74
2022/01/12 07:32:21;;;;;;;4.60;3.97;;;;;;;-1.66;100.00;101730.31;5092256;28;20198;-74
2022/01/12 07:34:48;;;;;;;27.37;9.37;;;;;;;-1.80;100.00;101702.75;5091691;28;20595;-74
2022/01/12 07:37:15;;;;;;;13.07;6.50;;;;;;;-1.38;100.00;101727.66;5091834;28;20194;-74
2022/01/12 07:39:41;;;;;;;21.57;8.43;;;;;;;-1.34;100.00;101724.63;5090881;28;20201;-73
2022/01/12 07:42:09;;;;;;;11.53;6.17;;;;;;;-1.35;100.00;101733.91;5091593;28;21462;-74
2022/01/12 07:44:35;;;;;;;19.40;7.30;;;;;;;-1.48;100.00;101736.13;5091350;28;20251;-74
2022/01/12 07:47:02;;;;;;;9.57;5.57;;;;;;;-1.61;100.00;101736.72;5091313;28;20614;-74
2022/01/12 07:49:31;;;;;;;21.20;7.83;;;;;;;-1.53;100.00;101738.25;5091605;28;20198;-75
2022/01/12 07:52:00;;;;;;;10.20;5.63;;;;;;;-1.54;100.00;101735.59;5091569;28;20665;-74
2022/01/12 07:54:27;;;;;;;16.63;8.43;;;;;;;-1.32;100.00;101740.94;5091486;28;20643;-74
2022/01/12 07:56:53;;;;;;;17.73;5.63;;;;;;;-1.62;100.00;101737.44;5091213;28;20186;-74
2022/01/12 07:59:20;;;;;;;9.13;5.13;;;;;;;-2.50;100.00;101573.59;5084969;28;20207;-74
2022/01/12 08:01:47;;;;;;;9.50;5.10;;;;;;;-1.55;100.00;101742.31;5071689;28;20210;-74
2022/01/12 08:04:14;;;;;;;24.20;7.50;;;;;;;-1.69;100.00;101735.13;5071966;28;20187;-74
2022/01/12 08:06:42;;;;;;;14.23;7.23;;;;;;;-1.37;100.00;101752.34;5071379;28;20234;-73
2022/01/12 08:09:09;;;;;;;17.03;7.93;;;;;;;-1.26;100.00;101749.09;5070720;28;20195;-74
2022/01/12 08:11:35;;;;;;;4.20;3.70;;;;;;;-1.34;100.00;101758.59;5071600;28;20206;-72
2022/01/12 08:14:02;;;;;;;10.37;5.20;;;;;;;-1.16;100.00;101756.78;5088830;28;20202;-73
2022/01/12 08:16:29;;;;;;;13.87;7.80;;;;;;;-1.13;100.00;101760.50;5091784;28;20661;-73
2022/01/12 08:18:56;;;;;;;9.33;5.43;;;;;;;-1.43;100.00;101731.47;5091985;28;20194;-74
2022/01/12 08:21:27;;;;;;;6.63;5.33;;;;;;;-1.13;100.00;101757.94;5092104;28;20213;-73
2022/01/12 08:23:55;;;;;;;12.87;7.13;;;;;;;-1.05;100.00;101756.97;5087013;28;20290;-74
2022/01/12 08:26:22;;;;;;;6.10;3.40;;;;;;;-1.45;100.00;101768.56;5071444;28;20226;-74
2022/01/12 08:28:49;;;;;;;10.77;5.60;;;;;;;-1.34;100.00;101765.31;5071585;28;20203;-74
2022/01/12 08:31:17;;;;;;;12.03;6.27;;;;;;;-1.26;100.00;101772.00;5071458;28;20205;-74
2022/01/12 08:33:44;;;;;;;11.00;6.03;;;;;;;-1.06;100.00;101767.00;5071379;28;20190;-73
2022/01/12 08:36:11;;;;;;;13.03;7.07;;;;;;;-1.02;100.00;101763.97;5071179;28;20202;-74
2022/01/12 08:38:38;;;;;;;11.00;6.57;;;;;;;-1.16;100.00;101754.22;5070478;28;20190;-74
2022/01/12 08:41:06;;;;;;;15.27;7.03;;;;;;;-1.01;100.00;101773.41;5071552;28;20191;-74
2022/01/12 08:43:33;;;;;;;13.40;7.50;;;;;;;-0.84;100.00;101773.22;5071173;28;20557;-74
2022/01/12 08:46:00;;;;;;;7.60;3.67;;;;;;;-1.14;100.00;101761.22;5071375;28;20223;-74
2022/01/12 08:48:27;;;;;;;8.43;5.37;;;;;;;-1.01;100.00;101778.50;5071593;28;20584;-74
2022/01/12 08:50:54;;;;;;;13.13;6.77;;;;;;;-0.82;100.00;101779.31;5071424;28;20260;-74
2022/01/12 08:53:21;;;;;;;13.77;6.67;;;;;;;-0.62;100.00;101771.78;5071550;28;20195;-74
2022/01/12 08:55:47;;;;;;;20.17;8.70;;;;;;;-0.43;100.00;101775.91;5073081;28;20199;-74
2022/01/12 08:58:16;;;;;;;16.93;7.20;;;;;;;-0.37;100.00;101772.22;5074815;28;20600;-74
2022/01/12 09:00:42;;;;;;;16.90;8.23;;;;;;;-0.24;100.00;101789.41;5075284;28;20634;-74
2022/01/12 09:03:09;;;;;;;6.67;4.47;;;;;;;-0.61;100.00;101780.31;5074907;28;20205;-74
2022/01/12 09:05:36;;;;;;;18.63;8.47;;;;;;;-0.69;100.00;101782.19;5074827;28;20234;-74
2022/01/12 09:08:03;;;;;;;16.20;8.17;;;;;;;-0.58;100.00;101786.56;5074384;28;20209;-74
2022/01/12 09:10:30;;;;;;;2.73;2.53;;;;;;;-0.90;100.00;101790.50;5074171;28;20225;-74
2022/01/12 09:12:57;;;;;;;13.07;6.80;;;;;;;-0.97;100.00;101780.56;5075073;28;20195;-74
2022/01/12 09:15:25;;;;;;;9.70;4.63;;;;;;;-0.72;100.00;101774.28;5074811;28;20248;-73
2022/01/12 09:17:52;;;;;;;14.13;7.23;;;;;;;-0.60;100.00;101782.97;5074788;28;20669;-73
2022/01/12 09:20:20;;;;;;;9.13;5.37;;;;;;;-0.52;100.00;101776.88;5074560;28;20709;-74
2022/01/12 09:22:47;;;;;;;16.90;6.87;;;;;;;-0.68;100.00;101778.00;5074666;28;20661;-74
2022/01/12 09:25:14;;;;;;;12.70;6.03;;;;;;;-0.70;100.00;101771.84;5074552;28;20200;-74
2022/01/12 09:27:41;;;;;;;14.57;7.70;;;;;;;-0.53;100.00;101770.00;5074501;28;20816;-73
2022/01/12 09:30:11;;;;;;;18.63;8.03;;;;;;;-0.38;100.00;101769.50;5074457;28;20612;-74
2022/01/12 09:32:40;;;;;;;16.50;8.53;;;;;;;-0.18;100.00;101769.56;5074446;28;20244;-74
2022/01/12 09:35:07;;;;;;;5.67;3.80;;;;;;;-0.49;96.96;101771.16;5074281;28;20673;-74
2022/01/12 09:37:34;;;;;;;8.77;4.30;;;;;;;-0.78;97.17;101766.09;5073634;28;20619;-74
2022/01/12 09:40:01;;;;;;;11.67;4.97;;;;;;;-0.89;99.38;101750.69;5074596;28;20267;-73
2022/01/12 09:42:28;;;;;;;9.50;3.77;;;;;;;-0.70;100.00;101757.47;5074471;28;20198;-76
2022/01/12 09:44:56;;;;;;;16.00;7.60;;;;;;;-0.45;99.89;101754.47;5074566;28;20191;-75
2022/01/12 09:47:23;;;;;;;9.70;6.20;;;;;;;-0.38;96.89;101760.22;5088549;28;20218;-75
2022/01/12 09:49:51;;;;;;;5.73;3.93;;;;;;;-0.65;95.59;101763.88;5094557;28;20244;-73
2022/01/12 09:52:18;;;;;;;11.47;4.60;;;;;;;-0.67;96.60;101761.94;5086498;28;20687;-73
2022/01/12 09:54:45;;;;;;;6.47;4.30;;;;;;;-1.09;97.67;101746.38;5092651;28;20251;-73
2022/01/12 09:57:11;;;;;;;12.80;6.20;;;;;;;-0.53;99.73;101764.00;5091582;28;20202;-72
2022/01/12 09:59:38;;;;;;;3.17;2.90;;;;;;;-0.62;98.29;101750.50;5092295;28;20202;-72
2022/01/12 10:02:14;;;;;;;15.37;5.40;;;;;;;-0.88;99.17;101727.88;5092553;28;20201;-75
2022/01/12 10:04:41;;;;;;;14.33;6.30;;;;;;;-0.61;100.00;101760.78;5093648;28;20205;-73
2022/01/12 10:07:11;;;;;;;8.57;4.53;;;;;;;-0.46;100.00;101750.16;5086624;28;20222;-73
2022/01/12 10:09:40;;;;;;;14.33;6.03;;;;;;;-0.34;100.00;101741.00;5089165;28;20202;-73
2022/01/12 10:12:13;;;;;;;13.10;7.57;;;;;;;-0.22;100.00;101740.38;5092759;28;20202;-73
2022/01/12 10:14:42;;;;;;;19.87;8.20;;;;;;;0.24;98.53;101752.75;5083526;28;20241;-73
2022/01/12 10:17:10;;;;;;;12.50;5.03;;;;;;;-0.01;98.07;101748.94;5073185;28;20286;-73
2022/01/12 10:19:37;;;;;;;43.87;15.13;;;;;;;0.28;97.20;101739.47;5073611;28;20215;-73
2022/01/12 10:22:06;;;;;;;43.17;14.23;;;;;;;0.38;96.57;101736.91;5083366;28;20190;-73
2022/01/12 10:24:37;;;;;;;12.83;7.73;;;;;;;0.26;96.04;101741.00;5093268;28;20229;-73
2022/01/12 10:27:11;;;;;;;27.70;10.27;;;;;;;0.15;96.73;101751.06;5091090;28;20221;-73
2022/01/12 10:29:39;;;;;;;21.60;9.63;;;;;;;0.32;96.69;101741.50;5092986;28;20233;-74
2022/01/12 10:32:08;;;;;;;20.97;8.30;;;;;;;0.44;96.14;101745.06;5092525;28;20190;-73
2022/01/12 10:34:38;;;;;;;18.67;4.93;;;;;;;-0.09;95.98;101744.84;5093210;28;20198;-73
2022/01/12 10:37:07;;;;;;;15.67;7.07;;;;;;;-0.09;96.82;101745.72;5092958;28;20237;-73
2022/01/12 10:39:40;;;;;;;18.13;8.80;;;;;;;0.54;95.84;101723.72;5092642;28;20285;-73
2022/01/12 10:42:08;;;;;;;19.97;8.10;;;;;;;0.79;91.53;101741.91;5093115;28;20194;-72
2022/01/12 10:44:41;;;;;;;19.73;8.70;;;;;;;0.77;89.15;101746.00;5093346;28;20194;-73
2022/01/12 10:47:11;;;;;;;24.03;9.73;;;;;;;0.82;88.11;101737.06;5091143;28;20222;-73
2022/01/12 10:49:39;;;;;;;9.97;4.60;;;;;;;0.64;85.56;101735.59;5094083;28;20205;-73
2022/01/12 10:52:09;;;;;;;10.63;5.37;;;;;;;0.41;85.36;101729.50;5109830;28;20204;-73
2022/01/12 10:54:49;;;;;;;24.10;10.63;;;;;;;0.62;87.08;101701.38;5112126;28;20680;-73
2022/01/12 10:57:22;;;;;;;15.63;7.23;;;;;;;0.91;85.14;101719.91;5113355;28;20200;-73
2022/01/12 11:00:01;;;;;;;3.90;3.50;;;;;;;-0.21;85.48;101657.13;5113258;28;20205;-75
2022/01/12 11:02:29;;;;;;;14.73;7.33;;;;;;;1.09;100.00;101729.03;5113370;28;20246;-74
2022/01/12 11:04:57;;;;;;;13.27;6.10;;;;;;;1.16;90.04;101726.19;5109538;28;20641;-72
2022/01/12 11:07:25;;;;;;;8.70;5.40;;;;;;;1.77;86.20;101726.69;5105360;28;20233;-73
2022/01/12 11:09:57;;;;;;;9.70;5.40;;;;;;;1.05;83.39;101729.53;5097164;28;20473;-73
2022/01/12 11:12:24;;;;;;;13.87;6.77;;;;;;;1.32;81.50;101729.13;5092394;28;20248;-72
2022/01/12 11:14:52;;;;;;;11.73;6.80;;;;;;;1.42;84.93;101730.78;5092654;28;20201;-73
2022/01/12 11:17:19;;;;;;;12.67;7.47;;;;;;;1.30;84.49;101717.94;5092244;28;20194;-73
2022/01/12 11:19:53;;;;;;;19.77;8.07;;;;;;;1.68;81.07;101736.19;5092030;28;20218;-73
2022/01/12 11:22:31;;;;;;;14.77;7.97;;;;;;;1.36;78.70;101709.81;5092345;28;20636;-73
2022/01/12 11:24:59;;;;;;;10.83;6.40;;;;;;;1.58;79.92;101737.94;5092357;28;20198;-73
2022/01/12 11:27:26;;;;;;;15.77;6.57;;;;;;;1.70;78.95;101733.78;5091062;28;20226;-72
2022/01/12 11:29:52;;;;;;;15.43;7.70;;;;;;;2.10;77.71;101738.59;5092298;28;20205;-72
2022/01/12 11:32:24;;;;;;;9.93;5.10;;;;;;;1.58;76.17;101738.81;5092460;28;20198;-73
2022/01/12 11:35:00;;;;;;;31.73;16.90;;;;;;;1.94;77.01;101740.75;5092128;28;20202;-71
2022/01/12 11:37:27;;;;;;;11.23;5.80;;;;;;;1.40;76.04;101737.41;5092343;28;20225;-72
2022/01/12 11:39:54;;;;;;;9.83;5.47;;;;;;;1.61;76.81;101739.06;5091185;28;20197;-72
2022/01/12 11:42:22;;;;;;;14.63;6.80;;;;;;;1.83;76.53;101741.59;5092380;28;20210;-72
2022/01/12 11:44:49;;;;;;;13.57;6.87;;;;;;;1.14;78.30;101737.06;5092329;28;20201;-72
2022/01/12 11:47:16;;;;;;;14.53;6.77;;;;;;;1.19;75.07;101670.22;5090753;28;20248;-73
2022/01/12 11:49:46;;;;;;;12.03;6.43;;;;;;;1.97;72.34;101751.22;5091964;28;20628;-72
2022/01/12 11:52:18;;;;;;;13.10;6.27;;;;;;;1.56;73.18;101716.50;5092117;28;20226;-73
2022/01/12 11:54:47;;;;;;;12.40;6.63;;;;;;;1.71;74.64;101746.66;5092113;28;20200;-73
2022/01/12 11:57:18;;;;;;;13.93;7.20;;;;;;;1.54;75.09;101741.03;5091764;28;20293;-72
2022/01/12 11:59:55;;;;;;;13.70;6.77;;;;;;;1.97;74.45;101746.09;5099405;28;20190;-74
2022/01/12 12:02:33;;;;;;;9.73;5.10;;;;;;;1.27;76.86;101750.00;5101453;28;20186;-73
2022/01/12 12:05:02;;;;;;;12.63;6.90;;;;;;;1.63;75.51;101749.41;5098981;28;20232;-73
2022/01/12 12:07:29;;;;;;;17.80;7.90;;;;;;;1.84;74.10;101751.97;5099185;28;20239;-74
2022/01/12 12:09:58;;;;;;;14.43;6.80;;;;;;;1.85;72.96;101751.19;5093474;28;20190;-74
2022/01/12 12:12:32;;;;;;;15.43;8.50;;;;;;;2.04;74.15;101752.56;5091587;28;20194;-74
2022/01/12 12:15:04;;;;;;;27.33;12.97;;;;;;;2.03;73.57;101728.66;5092030;28;20190;-77
2022/01/12 12:17:33;;;;;;;18.20;7.83;;;;;;;1.96;74.59;101734.09;5091900;28;20254;-78
2022/01/12 12:20:01;;;;;;;11.37;6.97;;;;;;;1.48;78.52;101744.91;5091379;28;20797;-76
2022/01/12 12:22:29;;;;;;;9.80;5.70;;;;;;;1.15;79.54;101693.72;5091797;28;20194;-74
2022/01/12 12:24:58;;;;;;;13.17;6.50;;;;;;;1.23;77.83;101748.88;5091518;28;20201;-74
2022/01/12 12:27:27;;;;;;;8.23;5.27;;;;;;;1.22;79.90;101752.19;5090717;28;20221;-75
2022/01/12 12:29:54;;;;;;;12.87;7.07;;;;;;;1.59;79.20;101752.50;5093515;28;20672;-75
2022/01/12 12:32:35;;;;;;;10.37;6.00;;;;;;;1.43;77.26;101742.75;5095519;28;20707;-75
2022/01/12 12:35:03;;;;;;;13.60;5.93;;;;;;;1.35;78.85;101748.94;5095967;28;20194;-75